Time;durP1;ratioP1;P1;durP2;ratioP2;P2;SDS_P1;SDS_P2;PMS_P1;PMS_P2;Temp;Humidity;BMP_temperature;BMP_pressure;BME280_temperature;BME280_humidity;BME280_pressure;Samples;Min_cycle;Max_cycle;Signal;HPM_P1;HPM_P2
2022/05/01 00:00:27;;;;;;;9.95;3.45;;;;;;;49.48;0.49;100394.44;5055226;28;20463;-66
2022/05/01 00:02:54;;;;;;;9.18;3.42;;;;;;;49.46;0.52;100394.22;5055384;28;20068;-65
2022/05/01 00:05:21;;;;;;;13.70;3.95;;;;;;;49.25;0.78;100391.03;5045607;28;20071;-67
2022/05/01 00:07:48;;;;;;;12.45;3.95;;;;;;;47.95;0.82;100379.09;5054907;28;20029;-67
2022/05/01 00:10:15;;;;;;;12.43;4.05;;;;;;;50.47;0.00;100359.59;5054702;28;20520;-66
2022/05/01 00:12:42;;;;;;;12.43;3.95;;;;;;;41.89;2.83;100394.69;5054873;28;20021;-66
2022/05/01 00:15:09;;;;;;;14.00;3.95;;;;;;;45.57;2.12;100382.44;5054900;28;20033;-66
2022/05/01 00:17:35;;;;;;;13.43;3.95;;;;;;;43.01;2.47;100379.50;5055121;28;20036;-66
2022/05/01 00:20:02;;;;;;;13.70;4.22;;;;;;;44.95;1.82;100387.09;5054899;28;20021;-68
2022/05/01 00:22:29;;;;;;;14.63;4.13;;;;;;;46.32;1.24;100378.69;5055393;28;20047;-68
2022/05/01 00:24:56;;;;;;;13.60;5.18;;;;;;;43.65;2.38;100381.41;5055588;28;20029;-65
2022/05/01 00:27:22;;;;;;;16.05;4.82;;;;;;;48.06;0.92;100373.22;5055103;28;20044;-65
2022/05/01 00:29:49;;;;;;;13.35;4.57;;;;;;;48.49;0.98;100372.66;5055437;28;20394;-66
2022/05/01 00:32:16;;;;;;;14.43;3.83;;;;;;;47.60;0.99;100364.63;5055447;28;20449;-67
2022/05/01 00:37:28;;;;;;;12.75;3.75;;;;;;;44.31;1.99;100363.34;5055317;28;20399;-65
2022/05/01 00:39:56;;;;;;;13.50;4.63;;;;;;;42.06;2.97;100364.38;5054858;28;20095;-66
2022/05/01 00:42:23;;;;;;;13.18;3.90;;;;;;;43.19;2.61;100346.97;5055108;28;20368;-67
2022/05/01 00:44:49;;;;;;;12.25;3.70;;;;;;;42.00;2.59;100348.41;5055093;28;20040;-65
2022/05/01 00:47:16;;;;;;;15.10;3.85;;;;;;;41.88;2.99;100338.88;5042775;28;20035;-66
2022/05/01 00:49:43;;;;;;;16.98;3.67;;;;;;;41.76;3.13;100355.00;5027856;28;20407;-66
2022/05/01 00:52:11;;;;;;;24.10;6.93;;;;;;;41.91;2.80;100343.59;5026184;28;20503;-67
2022/05/01 00:54:42;;;;;;;11.65;3.92;;;;;;;41.95;3.23;100344.19;5037048;28;20041;-67
2022/05/01 00:57:10;;;;;;;22.58;11.25;;;;;;;42.09;3.23;100340.56;5054812;28;20479;-68
2022/05/01 00:59:39;;;;;;;41.42;30.58;;;;;;;40.18;3.69;100346.16;5054551;28;20051;-68
2022/05/01 01:02:07;;;;;;;37.38;33.05;;;;;;;39.54;3.69;100344.16;5054609;28;20037;-68
2022/05/01 01:04:34;;;;;;;41.30;34.20;;;;;;;38.95;3.96;100336.91;5054612;28;20147;-69
2022/05/01 01:07:02;;;;;;;15.68;8.88;;;;;;;39.28;3.92;100337.94;5054605;28;20497;-65
2022/05/01 01:09:30;;;;;;;21.25;7.72;;;;;;;39.11;4.08;100338.69;5049890;28;20094;-67
2022/05/01 01:14:42;;;;;;;93.10;77.40;;;;;;;38.82;4.24;100325.69;5041283;28;20042;-66
2022/05/01 01:17:10;;;;;;;45.28;38.65;;;;;;;38.79;4.22;100331.50;5045124;28;20091;-65
2022/05/01 01:19:37;;;;;;;25.98;18.80;;;;;;;38.05;4.28;100333.94;5043265;28;20048;-66
2022/05/01 01:22:08;;;;;;;24.88;12.02;;;;;;;37.72;4.44;100338.41;5043268;28;20131;-65
2022/05/01 01:24:41;;;;;;;25.20;9.68;;;;;;;37.50;4.35;100339.16;5044701;28;20033;-66
2022/05/01 01:27:08;;;;;;;22.85;6.53;;;;;;;37.48;4.41;100324.66;5044615;28;20497;-65
2022/05/01 01:32:24;;;;;;;17.17;4.10;;;;;;;36.87;4.78;100331.59;5029544;28;20543;-67
2022/05/01 01:34:51;;;;;;;18.05;4.85;;;;;;;36.72;5.00;100335.31;5046263;28;20029;-67
2022/05/01 01:37:20;;;;;;;15.65;4.03;;;;;;;35.76;5.29;100332.53;5053677;28;20037;-66
2022/05/01 01:39:48;;;;;;;17.80;4.43;;;;;;;35.75;5.52;100326.09;5053897;28;20037;-65
2022/05/01 01:42:16;;;;;;;20.75;4.30;;;;;;;35.55;5.68;100334.72;5053795;28;20040;-65
2022/05/01 01:44:44;;;;;;;13.63;3.92;;;;;;;35.49;5.67;100344.16;5053576;28;20078;-65
2022/05/01 01:47:16;;;;;;;17.58;4.75;;;;;;;35.37;5.92;100334.38;5053697;28;20025;-65
2022/05/01 01:49:43;;;;;;;15.85;4.20;;;;;;;34.95;6.11;100344.72;5053000;28;20044;-65
2022/05/01 01:52:09;;;;;;;12.25;4.03;;;;;;;34.86;6.22;100338.91;5053078;28;20052;-65
2022/05/01 01:54:36;;;;;;;12.18;4.03;;;;;;;34.53;6.75;100342.47;5053664;28;20037;-66
2022/05/01 01:57:03;;;;;;;20.13;4.43;;;;;;;34.31;6.92;100344.16;5053821;28;20484;-66
2022/05/01 01:59:30;;;;;;;27.05;4.57;;;;;;;34.09;7.06;100340.97;5053480;28;20033;-66
2022/05/01 02:01:57;;;;;;;17.35;4.47;;;;;;;33.83;7.67;100345.50;5035679;28;20506;-66
2022/05/01 02:04:23;;;;;;;22.38;4.78;;;;;;;33.65;7.27;100339.44;5053514;28;20037;-66
2022/05/01 02:06:50;;;;;;;20.15;4.63;;;;;;;33.45;7.47;100339.41;5053506;28;20025;-65
2022/05/01 02:09:18;;;;;;;28.73;5.10;;;;;;;33.27;7.50;100344.53;5053292;28;20035;-65
2022/05/01 02:11:44;;;;;;;30.52;4.43;;;;;;;33.15;6.90;100339.50;5053142;28;20494;-65
2022/05/01 02:14:11;;;;;;;27.00;4.50;;;;;;;32.93;7.04;100341.88;5053190;28;20127;-64
2022/05/01 02:16:39;;;;;;;26.08;4.68;;;;;;;32.79;6.99;100356.16;5053344;28;20033;-65
2022/05/01 02:19:06;;;;;;;18.38;4.30;;;;;;;32.45;7.53;100352.22;5053137;28;20513;-67
2022/05/01 02:21:36;;;;;;;26.95;4.10;;;;;;;32.26;7.47;100357.69;5052695;28;20116;-66
2022/05/01 02:24:07;;;;;;;17.63;4.15;;;;;;;32.17;8.18;100361.81;5053157;28;20025;-65
2022/05/01 02:26:35;;;;;;;28.60;4.50;;;;;;;31.86;8.30;100363.78;5053217;28;20041;-65
2022/05/01 02:29:04;;;;;;;27.85;4.60;;;;;;;31.73;8.68;100361.91;5053238;28;20029;-65
2022/05/01 02:31:31;;;;;;;22.35;4.72;;;;;;;31.58;8.93;100367.66;5052747;28;20119;-66
2022/05/01 02:33:58;;;;;;;29.90;5.38;;;;;;;31.46;8.75;100375.81;5053043;28;20041;-65
2022/05/01 02:36:25;;;;;;;41.00;5.90;;;;;;;31.19;9.34;100382.06;5052928;28;20036;-68
2022/05/01 02:38:52;;;;;;;35.88;5.15;;;;;;;31.12;9.58;100389.72;5053001;28;20040;-67
2022/05/01 02:41:18;;;;;;;34.80;5.38;;;;;;;31.53;9.28;100421.50;5052727;28;20479;-66
2022/05/01 02:43:45;;;;;;;27.45;5.57;;;;;;;31.84;9.59;100424.44;5052938;28;20041;-67
2022/05/01 02:46:13;;;;;;;31.33;5.68;;;;;;;31.74;10.91;100422.53;5052858;28;20518;-66
2022/05/01 02:48:39;;;;;;;32.10;6.60;;;;;;;31.58;10.84;100423.84;5052834;28;20060;-67
2022/05/01 02:51:06;;;;;;;38.83;6.88;;;;;;;31.73;10.87;100432.16;5052633;28;20049;-66
2022/05/01 02:53:33;;;;;;;31.80;7.63;;;;;;;31.68;10.90;100433.41;5052571;28;20041;-67
2022/05/01 02:56:00;;;;;;;33.63;7.95;;;;;;;31.41;11.10;100444.47;5052766;28;20391;-66
2022/05/01 02:58:28;;;;;;;32.60;6.47;;;;;;;31.66;10.61;100435.03;5052870;28;20048;-66
2022/05/01 03:00:56;;;;;;;42.40;6.47;;;;;;;31.63;10.39;100436.66;5053164;28;20037;-68
2022/05/01 03:03:24;;;;;;;42.88;6.20;;;;;;;31.52;10.29;100436.75;5056794;28;20083;-67
2022/05/01 03:05:52;;;;;;;37.17;5.53;;;;;;;31.46;10.24;100441.22;5039288;28;20025;-66
2022/05/01 03:08:21;;;;;;;53.20;7.00;;;;;;;31.17;10.46;100443.44;5056628;28;20029;-66
2022/05/01 03:10:48;;;;;;;42.60;6.43;;;;;;;31.20;10.42;100444.63;5056417;28;20121;-65
2022/05/01 03:13:15;;;;;;;38.50;5.50;;;;;;;31.47;10.02;100448.44;5056645;28;20033;-65
2022/05/01 03:15:41;;;;;;;42.08;6.20;;;;;;;31.43;9.79;100449.69;5056957;28;20106;-65
2022/05/01 03:23:39;;;;;;;94.18;7.63;;;;;;;30.86;10.71;100456.44;5056454;28;20032;-65
2022/05/01 03:26:06;;;;;;;85.65;8.70;;;;;;;30.62;10.99;100446.97;5038576;28;20400;-66
2022/05/01 03:28:33;;;;;;;67.13;8.63;;;;;;;30.59;10.97;100469.38;5056558;28;20031;-65
2022/05/01 03:31:00;;;;;;;81.13;9.73;;;;;;;30.43;10.59;100469.06;5056445;28;20033;-65
2022/05/01 03:33:27;;;;;;;139.48;10.20;;;;;;;30.28;10.72;100477.50;5056351;28;20029;-66
2022/05/01 03:35:54;;;;;;;140.38;11.68;;;;;;;30.14;11.08;100471.94;5038535;28;20036;-66
2022/05/01 03:38:21;;;;;;;137.93;12.27;;;;;;;30.07;10.91;100477.56;5056263;28;20037;-66
2022/05/01 03:40:48;;;;;;;112.90;11.65;;;;;;;29.99;11.04;100481.56;5056264;28;20075;-66
2022/05/01 03:43:16;;;;;;;78.30;9.93;;;;;;;29.87;10.88;100490.38;5055750;28;20033;-66
2022/05/01 03:45:43;;;;;;;64.68;7.80;;;;;;;29.70;10.62;100487.19;5038293;28;20033;-65
2022/05/01 03:48:11;;;;;;;52.45;7.00;;;;;;;29.41;10.80;100496.72;5056189;28;20559;-65
2022/05/01 03:50:39;;;;;;;21.88;6.05;;;;;;;29.81;10.22;100486.38;5055744;28;20044;-66
2022/05/01 03:53:07;;;;;;;26.02;6.18;;;;;;;29.81;10.22;100494.78;5055640;28;20041;-65
2022/05/01 03:55:36;;;;;;;20.00;5.30;;;;;;;29.70;10.36;100489.19;5055806;28;20107;-65
2022/05/01 03:58:04;;;;;;;22.70;5.47;;;;;;;29.65;10.29;100496.00;5056153;28;20443;-65
2022/05/01 04:00:31;;;;;;;21.65;5.65;;;;;;;29.46;10.84;100496.38;5055648;28;20025;-65
2022/05/01 04:02:58;;;;;;;23.48;5.93;;;;;;;29.14;11.41;100494.31;5055816;28;20036;-65
2022/05/01 04:05:25;;;;;;;23.33;5.75;;;;;;;28.82;11.39;100499.78;5055583;28;20059;-66
2022/05/01 04:07:52;;;;;;;20.45;5.88;;;;;;;28.76;11.14;100495.78;5055718;28;20025;-65
2022/05/01 04:10:18;;;;;;;27.33;6.57;;;;;;;28.60;11.29;100514.88;5055568;28;20116;-65
2022/05/01 04:12:45;;;;;;;27.65;6.68;;;;;;;28.56;11.35;100516.84;5055002;28;20041;-65
2022/05/01 04:15:14;;;;;;;24.92;14.80;;;;;;;28.39;11.71;100526.75;5055507;28;20392;-65
2022/05/01 04:17:42;;;;;;;41.85;10.50;;;;;;;28.20;11.88;100516.63;5055535;28;20102;-66
2022/05/01 04:20:12;;;;;;;25.08;9.32;;;;;;;28.15;12.02;100521.75;5055339;28;20060;-65
2022/05/01 04:22:38;;;;;;;19.80;5.70;;;;;;;28.32;12.10;100532.28;5055287;28;20127;-65
2022/05/01 04:25:07;;;;;;;23.55;6.30;;;;;;;28.00;12.23;100530.03;5055424;28;20055;-65
2022/05/01 04:27:34;;;;;;;15.73;6.22;;;;;;;27.92;12.21;100531.19;5055001;28;20033;-66
2022/05/01 04:30:01;;;;;;;19.67;6.80;;;;;;;27.91;12.07;100539.97;5021195;28;20368;-65
2022/05/01 04:32:27;;;;;;;23.40;8.60;;;;;;;27.51;12.53;100524.81;5055205;28;20025;-66
2022/05/01 04:34:54;;;;;;;23.90;7.30;;;;;;;27.74;12.44;100538.63;5055537;28;20464;-66
2022/05/01 04:37:22;;;;;;;19.67;9.88;;;;;;;27.72;12.41;100538.19;5055162;28;20390;-64
2022/05/01 04:39:48;;;;;;;21.08;10.68;;;;;;;27.80;12.35;100537.06;5055050;28;20421;-65
2022/05/01 04:42:17;;;;;;;20.98;5.95;;;;;;;27.74;12.58;100535.81;5054944;28;20108;-66
2022/05/01 04:44:44;;;;;;;20.23;4.85;;;;;;;27.83;12.42;100539.09;5055068;28;20124;-66
2022/05/01 04:47:11;;;;;;;13.32;4.07;;;;;;;27.45;12.56;100539.50;5054900;28;20025;-65
2022/05/01 04:49:38;;;;;;;14.45;5.43;;;;;;;27.34;12.92;100543.00;5054771;28;20128;-65
2022/05/01 04:52:05;;;;;;;15.40;7.32;;;;;;;27.20;12.87;100533.66;5054474;28;20080;-66
2022/05/01 04:54:32;;;;;;;14.73;5.35;;;;;;;27.22;12.48;100528.50;5054783;28;20040;-64
2022/05/01 04:57:13;;;;;;;12.82;5.57;;;;;;;27.32;12.80;100541.78;5054859;28;20025;-65
2022/05/01 04:59:40;;;;;;;14.40;6.13;;;;;;;27.25;12.61;100542.50;5054664;28;20040;-65
2022/05/01 05:02:07;;;;;;;12.82;4.88;;;;;;;27.14;12.40;100536.00;5054637;28;20083;-67
2022/05/01 05:04:34;;;;;;;12.05;4.20;;;;;;;27.07;12.71;100533.94;5054635;28;20044;-65
2022/05/01 05:07:01;;;;;;;17.13;4.95;;;;;;;26.89;12.71;100527.31;5054564;28;20075;-65
2022/05/01 05:12:13;;;;;;;12.68;4.70;;;;;;;26.79;12.85;100520.44;5036339;28;20087;-66
2022/05/01 05:14:40;;;;;;;14.73;4.93;;;;;;;26.64;12.94;100540.94;5053841;28;20090;-65
2022/05/01 05:17:07;;;;;;;23.27;4.47;;;;;;;26.71;12.37;100529.88;5054395;28;20021;-66
2022/05/01 05:19:35;;;;;;;16.38;4.88;;;;;;;27.24;11.70;100526.94;5054268;28;20029;-65
2022/05/01 05:22:02;;;;;;;17.35;4.25;;;;;;;27.22;12.19;100536.88;5054150;28;20025;-67
2022/05/01 05:24:30;;;;;;;19.02;4.30;;;;;;;27.20;11.60;100530.88;5053304;28;20056;-66
2022/05/01 05:26:57;;;;;;;18.52;5.38;;;;;;;27.15;11.76;100537.63;5054324;28;20025;-66
2022/05/01 05:29:24;;;;;;;17.35;4.60;;;;;;;27.36;11.55;100521.09;5054371;28;20037;-66
2022/05/01 05:31:51;;;;;;;16.38;4.70;;;;;;;27.30;11.64;100517.06;5054141;28;20039;-66
2022/05/01 05:34:18;;;;;;;16.80;5.05;;;;;;;27.27;11.54;100517.78;5054146;28;20037;-65
2022/05/01 05:36:45;;;;;;;23.58;5.18;;;;;;;27.10;11.82;100518.41;5053873;28;20526;-65
2022/05/01 05:39:12;;;;;;;18.48;4.95;;;;;;;26.98;11.95;100511.09;5053848;28;20120;-64
2022/05/01 05:41:39;;;;;;;21.10;4.75;;;;;;;26.90;11.86;100522.53;5053447;28;20039;-66
2022/05/01 05:44:05;;;;;;;20.27;4.63;;;;;;;26.84;12.08;100498.97;5036218;28;20033;-65
2022/05/01 05:46:32;;;;;;;19.58;4.10;;;;;;;26.80;12.26;100519.25;5053772;28;20029;-65
2022/05/01 05:48:59;;;;;;;17.15;4.25;;;;;;;26.71;12.40;100499.22;5053950;28;20039;-66
2022/05/01 05:51:26;;;;;;;13.93;4.75;;;;;;;26.68;12.45;100486.03;5053164;28;20053;-66
2022/05/01 05:53:53;;;;;;;17.35;3.97;;;;;;;26.69;12.85;100501.56;5053644;28;20102;-66
2022/05/01 05:56:21;;;;;;;13.30;3.95;;;;;;;26.68;13.03;100490.81;5053574;28;20033;-66
2022/05/01 05:58:48;;;;;;;14.85;4.13;;;;;;;26.53;13.27;100500.16;5053736;28;20487;-64
2022/05/01 06:01:15;;;;;;;16.00;5.28;;;;;;;26.19;13.56;100491.72;5053447;28;20483;-65
2022/05/01 06:03:42;;;;;;;16.50;5.45;;;;;;;25.87;13.86;100488.47;5053458;28;20094;-65
2022/05/01 06:06:09;;;;;;;15.50;4.50;;;;;;;26.06;13.87;100491.16;5050090;28;20036;-66
2022/05/01 06:08:37;;;;;;;11.10;4.40;;;;;;;26.18;13.64;100496.47;5053274;28;20056;-65
2022/05/01 06:11:05;;;;;;;16.83;4.75;;;;;;;26.39;13.23;100495.19;5048759;28;20037;-67
2022/05/01 06:13:34;;;;;;;17.58;4.68;;;;;;;26.18;13.41;100490.91;5043201;28;20049;-67
2022/05/01 06:16:00;;;;;;;18.92;4.72;;;;;;;26.27;13.13;100498.19;5052205;28;20033;-65
2022/05/01 06:18:27;;;;;;;15.98;4.28;;;;;;;26.42;13.18;100488.91;5047302;28;20029;-68
2022/05/01 06:20:54;;;;;;;15.82;5.20;;;;;;;26.08;13.43;100494.34;5043419;28;20033;-66
2022/05/01 06:23:21;;;;;;;18.83;6.65;;;;;;;26.15;13.68;100497.22;5034708;28;20032;-67
2022/05/01 06:25:49;;;;;;;20.17;8.00;;;;;;;26.11;14.29;100501.94;5046950;28;20368;-65
2022/05/01 06:28:16;;;;;;;16.05;5.35;;;;;;;25.95;14.51;100504.09;5046504;28;20048;-68
2022/05/01 06:30:45;;;;;;;15.35;6.40;;;;;;;25.88;14.78;100515.13;5049961;28;20529;-67
2022/05/01 06:33:15;;;;;;;14.63;5.88;;;;;;;25.69;15.61;100513.22;5047900;28;20035;-67
2022/05/01 06:35:42;;;;;;;16.02;5.43;;;;;;;25.61;16.24;100528.97;5033187;28;20031;-67
2022/05/01 06:38:10;;;;;;;15.05;4.80;;;;;;;25.42;17.07;100509.53;5050203;28;20124;-67
2022/05/01 06:40:42;;;;;;;23.50;5.75;;;;;;;25.25;17.59;100527.50;5033769;28;20029;-67
2022/05/01 06:43:10;;;;;;;15.98;5.10;;;;;;;25.11;18.27;100529.22;5048856;28;20033;-67
2022/05/01 06:45:37;;;;;;;12.88;4.63;;;;;;;24.94;18.63;100530.44;5049279;28;20057;-67
2022/05/01 06:48:04;;;;;;;65.10;7.10;;;;;;;24.91;19.12;100528.41;5048780;28;20479;-68
2022/05/01 06:50:31;;;;;;;17.88;5.43;;;;;;;24.99;18.59;100514.31;5043772;28;20037;-67
2022/05/01 06:52:58;;;;;;;12.10;4.93;;;;;;;24.95;18.44;100510.59;5046174;28;20112;-67
2022/05/01 06:55:25;;;;;;;19.17;5.97;;;;;;;25.09;18.24;100514.88;5045418;28;20033;-66
2022/05/01 06:57:57;;;;;;;11.13;5.90;;;;;;;24.99;18.30;100522.66;5047418;28;20104;-67
2022/05/01 07:00:24;;;;;;;18.35;7.18;;;;;;;24.85;18.07;100510.41;5046740;28;20037;-66
2022/05/01 07:02:53;;;;;;;10.02;4.60;;;;;;;24.84;17.84;100512.38;5048433;28;20037;-68
2022/05/01 07:05:22;;;;;;;15.93;5.65;;;;;;;24.92;18.01;100510.53;5049660;28;20054;-65
2022/05/01 07:07:50;;;;;;;12.13;3.97;;;;;;;24.81;17.94;100513.13;5050109;28;20029;-67
2022/05/01 07:10:19;;;;;;;14.07;4.70;;;;;;;24.80;17.87;100511.53;5032841;28;20033;-66
2022/05/01 07:12:46;;;;;;;11.00;4.28;;;;;;;24.79;17.67;100504.34;5048516;28;20033;-65
2022/05/01 07:15:13;;;;;;;14.85;3.90;;;;;;;24.89;17.27;100498.19;5048424;28;20057;-67
2022/05/01 07:17:40;;;;;;;20.48;5.60;;;;;;;24.93;16.89;100487.13;5048983;28;20052;-67
2022/05/01 07:20:08;;;;;;;9.32;4.13;;;;;;;24.75;17.02;100492.34;5049777;28;20086;-65
2022/05/01 07:22:35;;;;;;;14.05;4.53;;;;;;;24.74;16.73;100496.28;5049247;28;20029;-67
2022/05/01 07:25:01;;;;;;;11.30;4.40;;;;;;;24.92;16.49;100502.19;5050054;28;20067;-66
2022/05/01 07:27:28;;;;;;;12.15;4.85;;;;;;;24.99;16.09;100492.06;5049777;28;20044;-67
2022/05/01 07:29:55;;;;;;;10.45;3.72;;;;;;;24.97;16.22;100483.28;5040585;28;20075;-67
2022/05/01 07:32:21;;;;;;;14.85;3.92;;;;;;;24.88;16.26;100479.91;5050236;28;20032;-67
2022/05/01 07:34:48;;;;;;;13.07;3.95;;;;;;;24.77;16.44;100478.88;5040795;28;20465;-68
2022/05/01 07:37:16;;;;;;;11.43;4.30;;;;;;;24.74;16.01;100467.69;5049846;28;20398;-67
2022/05/01 07:39:43;;;;;;;13.93;4.20;;;;;;;24.83;15.56;100454.38;5050198;28;20036;-65
2022/05/01 07:42:11;;;;;;;11.43;3.97;;;;;;;24.93;15.21;100457.34;5023639;28;20487;-67
2022/05/01 07:44:37;;;;;;;11.25;4.07;;;;;;;24.96;14.96;100456.63;5050276;28;20033;-66
2022/05/01 07:47:04;;;;;;;10.27;3.80;;;;;;;24.74;15.00;100445.44;5050205;28;20029;-65
2022/05/01 07:49:31;;;;;;;9.75;3.83;;;;;;;24.61;14.94;100450.38;5051745;28;20029;-66
2022/05/01 07:51:59;;;;;;;17.15;3.95;;;;;;;24.74;14.70;100457.38;5052693;28;20048;-65
2022/05/01 07:54:28;;;;;;;10.73;4.45;;;;;;;24.62;14.69;100460.31;5053212;28;20502;-66
2022/05/01 07:56:54;;;;;;;13.60;3.85;;;;;;;24.68;14.55;100456.06;5054075;28;20060;-65
2022/05/01 07:59:21;;;;;;;13.90;4.07;;;;;;;24.63;14.67;100456.38;5052856;28;20033;-66
2022/05/01 08:01:48;;;;;;;10.00;4.10;;;;;;;24.63;14.48;100445.25;5052486;28;20036;-65
2022/05/01 08:04:29;;;;;;;14.07;4.30;;;;;;;24.53;15.07;100446.63;5053631;28;20081;-65
2022/05/01 08:06:58;;;;;;;13.00;3.42;;;;;;;24.24;15.88;100445.22;5053592;28;20094;-67
2022/05/01 08:09:26;;;;;;;12.27;3.90;;;;;;;23.95;16.17;100452.09;5053008;28;20113;-65
2022/05/01 08:11:53;;;;;;;9.50;3.60;;;;;;;23.68;16.40;100434.41;5052004;28;20029;-65
2022/05/01 08:14:21;;;;;;;12.82;4.18;;;;;;;23.59;16.22;100431.03;5054647;28;20025;-66
2022/05/01 08:16:49;;;;;;;9.20;3.63;;;;;;;23.45;16.32;100425.09;5053317;28;20109;-66
2022/05/01 08:22:01;;;;;;;7.55;4.10;;;;;;;23.24;16.26;100430.13;5061896;28;20080;-65
2022/05/01 08:24:28;;;;;;;14.10;4.65;;;;;;;23.09;16.29;100413.13;5064314;28;20513;-66
2022/05/01 08:26:55;;;;;;;10.52;4.15;;;;;;;23.14;16.24;100423.13;5045669;28;20045;-65
2022/05/01 08:29:21;;;;;;;14.32;4.72;;;;;;;23.03;16.30;100414.56;5065571;28;20048;-66
2022/05/01 08:31:49;;;;;;;10.13;4.20;;;;;;;22.99;16.22;100412.84;5064545;28;20047;-66
2022/05/01 08:34:16;;;;;;;11.43;4.28;;;;;;;22.95;16.30;100412.75;5045201;28;20029;-65
2022/05/01 08:36:45;;;;;;;9.52;3.75;;;;;;;22.92;16.30;100405.94;5064461;28;20063;-66
2022/05/01 08:39:12;;;;;;;14.30;3.83;;;;;;;22.95;16.45;100401.66;5064879;28;20071;-65
2022/05/01 08:41:39;;;;;;;12.48;3.75;;;;;;;22.82;16.53;100398.16;5062743;28;20061;-66
2022/05/01 08:44:10;;;;;;;13.02;4.05;;;;;;;22.82;16.04;100376.00;5074239;28;20090;-64
2022/05/01 08:46:36;;;;;;;9.15;3.97;;;;;;;23.01;15.46;100391.94;5074283;28;20051;-64
2022/05/01 08:49:08;;;;;;;14.55;4.60;;;;;;;23.30;15.05;100384.31;5075026;28;20463;-65
2022/05/01 08:51:40;;;;;;;12.32;3.58;;;;;;;23.06;15.30;100380.56;5072683;28;20036;-65
2022/05/01 08:54:11;;;;;;;8.18;4.07;;;;;;;23.20;14.73;100378.16;5037233;28;20052;-64
2022/05/01 08:56:41;;;;;;;15.25;4.65;;;;;;;23.06;14.63;100358.41;5054559;28;20069;-65
2022/05/01 08:59:14;;;;;;;15.50;4.93;;;;;;;23.14;14.81;100384.31;5053290;28;20083;-66
2022/05/01 09:01:43;;;;;;;13.15;3.85;;;;;;;23.19;14.73;100379.31;5059511;28;20041;-66
2022/05/01 09:04:14;;;;;;;10.45;3.75;;;;;;;23.29;14.50;100379.94;5060387;28;20480;-66
2022/05/01 09:06:43;;;;;;;10.43;3.75;;;;;;;23.43;14.58;100383.06;5065034;28;20025;-66
2022/05/01 09:09:19;;;;;;;13.13;3.45;;;;;;;23.42;14.71;100375.91;5057584;28;20033;-66
2022/05/01 09:14:33;;;;;;;7.65;3.28;;;;;;;23.32;15.06;100382.78;5052480;28;20483;-67
2022/05/01 09:17:13;;;;;;;8.52;3.25;;;;;;;23.21;15.35;100393.63;5059680;28;20064;-67
2022/05/01 09:19:41;;;;;;;12.07;3.53;;;;;;;23.34;15.63;100393.53;5054203;28;20506;-67
2022/05/01 09:22:08;;;;;;;10.80;3.30;;;;;;;23.26;15.61;100377.88;5053937;28;20033;-67
2022/05/01 09:24:35;;;;;;;11.70;3.63;;;;;;;23.12;15.87;100373.59;5054608;28;20061;-66
2022/05/01 09:27:02;;;;;;;12.18;3.47;;;;;;;23.30;15.61;100384.31;5054152;28;20037;-66
2022/05/01 09:29:34;;;;;;;12.13;3.50;;;;;;;23.35;15.76;100392.38;5054074;28;20051;-67
2022/05/01 09:32:03;;;;;;;11.55;3.63;;;;;;;23.10;16.18;100387.00;5054277;28;20091;-67
2022/05/01 09:34:37;;;;;;;11.65;3.58;;;;;;;23.06;16.64;100385.31;5054084;28;20036;-67
2022/05/01 09:37:19;;;;;;;13.73;3.50;;;;;;;23.04;16.78;100390.41;5054210;28;20078;-67
2022/05/01 09:39:51;;;;;;;10.00;3.50;;;;;;;22.94;17.01;100388.97;5053781;28;20072;-67
2022/05/01 09:42:21;;;;;;;16.08;4.47;;;;;;;22.51;17.56;100398.88;5053700;28;20025;-67
2022/05/01 09:45:14;;;;;;;12.35;6.65;;;;;;;22.12;18.56;100410.78;5053977;28;20070;-67
2022/05/01 09:47:43;;;;;;;14.13;6.28;;;;;;;21.79;18.68;100417.25;5053828;28;20090;-65
2022/05/01 09:50:11;;;;;;;13.30;6.45;;;;;;;21.60;18.96;100405.97;5053672;28;20033;-66
2022/05/01 09:53:01;;;;;;;19.13;6.97;;;;;;;21.54;19.32;100415.66;5053524;28;20144;-66
2022/05/01 09:55:29;;;;;;;15.80;6.72;;;;;;;21.22;19.66;100398.81;5053544;28;20029;-66
2022/05/01 09:58:13;;;;;;;22.30;6.90;;;;;;;21.17;19.56;100401.78;5053726;28;20079;-66
2022/05/01 10:00:46;;;;;;;13.65;5.88;;;;;;;20.93;20.01;100394.25;5053648;28;20033;-65
2022/05/01 10:03:31;;;;;;;11.10;5.18;;;;;;;20.64;19.97;100395.22;5053657;28;20032;-65
2022/05/01 10:05:59;;;;;;;14.20;4.20;;;;;;;20.64;20.11;100392.44;5053591;28;20033;-64
2022/05/01 10:08:27;;;;;;;13.20;3.90;;;;;;;20.72;20.21;100396.28;5053500;28;20502;-66
2022/05/01 10:10:59;;;;;;;14.55;3.95;;;;;;;21.02;19.71;100397.75;5053011;28;20043;-65
2022/05/01 10:13:27;;;;;;;9.43;3.85;;;;;;;21.59;18.91;100401.59;5035966;28;20047;-65
2022/05/01 10:15:55;;;;;;;23.70;6.68;;;;;;;21.55;19.31;100395.16;5053278;28;20033;-65
2022/05/01 10:18:23;;;;;;;40.25;7.40;;;;;;;21.28;20.11;100413.22;5053200;28;20112;-65
2022/05/01 10:20:50;;;;;;;25.90;7.40;;;;;;;20.90;20.79;100421.78;5053058;28;20098;-65
2022/05/01 10:23:17;;;;;;;35.00;8.18;;;;;;;20.62;21.25;100411.31;5052814;28;20037;-65
2022/05/01 10:25:52;;;;;;;22.48;7.85;;;;;;;20.31;21.67;100380.59;5053225;28;20387;-66
2022/05/01 10:28:51;;;;;;;;;;;;;;;20.27;22.04;100405.25;5053663;28;20036;-66
2022/05/01 10:34:46;;;;;;;29.85;8.98;;;;;;;19.80;25.05;100416.50;5053114;28;20051;-66
2022/05/01 10:37:50;;;;;;;37.15;9.45;;;;;;;19.48;25.82;100419.88;5052957;28;20036;-67
2022/05/01 10:40:17;;;;;;;34.30;8.32;;;;;;;19.25;26.64;100413.84;5053009;28;20033;-66
2022/05/01 10:42:46;;;;;;;35.85;8.07;;;;;;;19.16;27.88;100424.06;5052955;28;20021;-66
2022/05/01 10:45:21;;;;;;;36.03;8.95;;;;;;;19.14;28.25;100431.84;5052977;28;20080;-66
2022/05/01 10:47:51;;;;;;;30.25;9.55;;;;;;;18.96;28.61;100431.09;5052680;28;20068;-68
2022/05/01 10:50:27;;;;;;;27.80;9.25;;;;;;;18.65;29.42;100420.31;5052876;28;20074;-67
2022/05/01 10:53:05;;;;;;;27.65;8.05;;;;;;;18.42;30.48;100409.47;5052660;28;20083;-67
2022/05/01 10:55:55;;;;;;;23.80;8.52;;;;;;;18.35;30.53;100424.84;5052851;28;20048;-67
2022/05/01 10:58:30;;;;;;;24.67;8.38;;;;;;;18.44;31.04;100417.38;5052795;28;20036;-67
2022/05/01 11:00:57;;;;;;;24.77;9.45;;;;;;;18.23;31.68;100422.72;5052861;28;20041;-68
2022/05/01 11:03:35;;;;;;;25.55;9.45;;;;;;;18.22;31.61;100423.06;5052593;28;20033;-67
2022/05/01 11:06:04;;;;;;;22.38;8.38;;;;;;;18.01;31.56;100425.63;5035163;28;20087;-65
2022/05/01 11:08:33;;;;;;;26.52;8.25;;;;;;;18.08;32.04;100428.69;5052655;28;20037;-65
2022/05/01 11:11:02;;;;;;;20.77;7.53;;;;;;;17.97;31.48;100425.47;5052695;28;20024;-65
2022/05/01 11:13:36;;;;;;;31.67;9.13;;;;;;;17.98;32.40;100427.09;5052331;28;20037;-66
2022/05/01 11:16:07;;;;;;;30.38;8.50;;;;;;;18.02;32.53;100430.00;5052737;28;20427;-66
2022/05/01 11:18:39;;;;;;;24.90;7.85;;;;;;;17.90;32.73;100432.56;5052707;28;20036;-66
2022/05/01 11:21:29;;;;;;;21.88;7.05;;;;;;;17.68;32.44;100431.53;5052534;28;20088;-65
2022/05/01 11:24:04;;;;;;;31.08;7.82;;;;;;;17.61;33.55;100428.44;5036710;28;20042;-65
2022/05/01 11:26:32;;;;;;;28.10;8.60;;;;;;;17.71;32.79;100430.09;5036663;28;20167;-66
2022/05/01 11:29:17;;;;;;;30.48;7.93;;;;;;;17.60;32.86;100429.56;5036576;28;20026;-66
2022/05/01 11:31:45;;;;;;;29.80;9.93;;;;;;;17.63;32.61;100431.66;5036575;28;20092;-66
2022/05/01 11:34:23;;;;;;;33.05;10.65;;;;;;;17.56;32.56;100445.03;5036575;28;20028;-66
2022/05/01 11:37:04;;;;;;;30.45;12.02;;;;;;;17.41;32.71;100421.56;5036518;28;20041;-66
2022/05/01 11:39:51;;;;;;;24.70;11.23;;;;;;;17.55;32.61;100440.69;5036369;28;20499;-65
2022/05/01 11:42:29;;;;;;;36.42;11.15;;;;;;;17.44;32.90;100437.44;5041818;28;20021;-66
2022/05/01 11:44:58;;;;;;;27.80;10.27;;;;;;;17.34;32.47;100434.94;5056294;28;20106;-66
2022/05/01 11:47:27;;;;;;;30.15;11.38;;;;;;;17.39;32.91;100439.50;5055985;28;20044;-66
2022/05/01 11:49:54;;;;;;;33.33;10.65;;;;;;;17.31;32.67;100438.34;5056028;28;20033;-66
2022/05/01 11:52:22;;;;;;;40.92;10.05;;;;;;;17.25;32.58;100433.31;5055430;28;20053;-66